Saint-sauveur, France

2:17 PM CET on February 19, 2017 (GMT +0100)
Route des Sapins | | Change Station

Elev 19 ft 46.71 °N, 2.32 °W | Updated 4 minutes ago

Clear
Clear
59.2 °F
Feels Like 59.2 °F
N
1.9
Wind Variable Wind from NW
Gusts 4.3 mph

Today
High -- | Low -- °F
--% Chance of Precip.
Yesterday
High -- | Low -- °F
Precip. -- in
Pressure 30.33 in
Visibility -9999.0 miles
Clouds
Dew Point 53 °F
Humidity 80%
Rainfall 0.00 in
Snow Depth Not available.
8:06 AM 6:40 PM
Last Quarter, 43% visible
METAR LFRZ 191300Z AUTO 20008KT CAVOK 11/07 Q1027 NOSIG
Pressure 30.33 in
Visibility -9999.0 miles
Clouds
Dew Point 53 °F
Humidity 80%
Rainfall 0.00 in
Snow Depth Not available.
8:06 AM 6:40 PM
Last Quarter, 43% visible
METAR LFRZ 191300Z AUTO 20008KT CAVOK 11/07 Q1027 NOSIG

Get Your Daily Forecast Email!

Thanks for signing up!

Be on the lookout for a verification email in your inbox.

You'll start receiving the daily forecast at 8 AM.

×

10-Day Weather Forecast

×

Almanac

Astronomy

Feb. 19, 2017 Rise Set
Actual Time
Civil Twilight
Nautical Twilight
Astronomical Twilight
Moon
Length of Visible Light
Length of Day
Tomorrow will be .
, % of the Moon is Illuminated

Today's Extremes

Country Highs Country Lows

Community

WunderPhotos

Upload Photos

1,962,540 photos uploaded!

WunderBlog® & News

Nearby

Air Quality

  Air Quality AQ Index Pollutant
Not available.

Snow Depth

Station Depth Elevation

Earthquake Activity

City Distance Mag. Time & Date
Minimum magnitude displayed is 2.5.

Coastal Water Temperatures

Place Temperature

Stations

Nearby Weather Stations

Station Location Temp. Windchill Dew Point Humidity Wind Precip. Elev Updated Type